createdAt,value
2022-09-13T00:01:29.960Z,15.53
2022-09-13T00:03:57.069Z,15.51
2022-09-13T00:06:24.176Z,15.51
2022-09-13T00:08:52.358Z,15.49
2022-09-13T00:11:25.030Z,15.48
2022-09-13T00:13:53.129Z,15.48
2022-09-13T00:16:22.115Z,15.47
2022-09-13T00:18:49.455Z,15.45
2022-09-13T00:21:19.175Z,15.43
2022-09-13T00:23:48.177Z,15.43
2022-09-13T00:26:18.206Z,15.41
2022-09-13T00:28:45.848Z,15.40
2022-09-13T00:31:13.039Z,15.38
2022-09-13T00:33:40.153Z,15.38
2022-09-13T00:36:09.851Z,15.36
2022-09-13T00:38:40.261Z,15.34
2022-09-13T00:41:11.154Z,15.30
2022-09-13T00:44:07.287Z,15.31
2022-09-13T00:46:46.741Z,15.32
2022-09-13T00:49:23.244Z,15.30
2022-09-13T00:51:58.075Z,15.27
2022-09-13T00:54:28.203Z,15.24
2022-09-13T00:56:57.736Z,15.23
2022-09-13T00:59:34.606Z,15.18
2022-09-13T01:02:03.941Z,15.21
2022-09-13T01:04:32.912Z,15.19
2022-09-13T01:07:04.437Z,15.15
2022-09-13T01:09:33.190Z,15.15
2022-09-13T01:12:25.640Z,15.13
2022-09-13T01:14:52.770Z,15.11
2022-09-13T01:17:19.884Z,15.09
2022-09-13T01:19:47.538Z,15.09
2022-09-13T01:22:33.252Z,15.07
2022-09-13T01:25:39.460Z,15.05
2022-09-13T01:28:12.498Z,15.05
2022-09-13T01:30:51.883Z,15.05
2022-09-13T01:33:46.604Z,15.04
2022-09-13T01:36:45.187Z,14.94
2022-09-13T01:39:18.158Z,14.81
2022-09-13T01:41:54.323Z,14.83
2022-09-13T01:44:44.420Z,14.88
2022-09-13T01:47:20.765Z,14.87
2022-09-13T01:49:57.114Z,14.87
2022-09-13T01:52:43.303Z,14.85
2022-09-13T01:55:20.671Z,14.82
2022-09-13T01:58:05.705Z,14.80
2022-09-13T02:00:38.244Z,14.80
2022-09-13T02:03:07.708Z,14.75
2022-09-13T02:05:42.373Z,14.71
2022-09-13T02:08:38.409Z,14.72
2022-09-13T02:11:12.863Z,14.68
2022-09-13T02:14:04.081Z,14.68
2022-09-13T02:16:34.700Z,14.66
2022-09-13T02:19:33.624Z,14.55
2022-09-13T02:22:03.924Z,14.56
2022-09-13T02:24:34.309Z,14.56
2022-09-13T02:27:08.703Z,14.57
2022-09-13T02:29:39.072Z,14.58
2022-09-13T02:32:07.857Z,14.56
2022-09-13T02:34:40.390Z,14.50
2022-09-13T02:37:09.421Z,14.48
2022-09-13T02:39:38.939Z,14.52
2022-09-13T02:42:20.346Z,14.54
2022-09-13T02:44:52.624Z,14.53
2022-09-13T02:47:41.228Z,14.52
2022-09-13T02:50:22.775Z,14.50
2022-09-13T02:52:56.466Z,14.51
2022-09-13T02:55:27.221Z,14.51
2022-09-13T02:58:11.243Z,14.48
2022-09-13T03:00:39.185Z,14.48
2022-09-13T03:03:10.749Z,14.47
2022-09-13T03:05:38.865Z,14.44
2022-09-13T03:08:07.992Z,14.48
2022-09-13T03:10:48.673Z,14.46
2022-09-13T03:13:16.269Z,14.40
2022-09-13T03:15:47.111Z,14.39
2022-09-13T03:18:17.473Z,14.37
2022-09-13T03:21:22.157Z,14.36
2022-09-13T03:24:29.373Z,14.35
2022-09-13T03:27:32.239Z,14.32
2022-09-13T03:30:05.356Z,14.31
2022-09-13T03:32:43.755Z,14.29
2022-09-13T03:35:40.637Z,14.27
2022-09-13T03:38:18.798Z,14.25
2022-09-13T03:41:02.607Z,14.23
2022-09-13T03:43:45.203Z,14.23
2022-09-13T03:46:16.519Z,14.21
2022-09-13T03:48:44.836Z,14.24
2022-09-13T03:51:13.277Z,14.23
2022-09-13T03:53:48.678Z,14.21
2022-09-13T03:56:19.180Z,14.19
2022-09-13T03:58:48.275Z,14.19
2022-09-13T04:01:23.563Z,14.18
2022-09-13T04:03:55.856Z,14.19
2022-09-13T04:06:24.320Z,14.16
2022-09-13T04:08:52.167Z,14.16
2022-09-13T04:12:23.126Z,14.18
2022-09-13T04:14:50.862Z,14.19
2022-09-13T04:17:18.924Z,14.18
2022-09-13T04:23:41.887Z,14.12
2022-09-13T04:26:13.413Z,14.12
2022-09-13T04:28:41.744Z,14.12
2022-09-13T04:31:09.363Z,14.14
2022-09-13T04:33:37.531Z,14.15
2022-09-13T04:36:05.129Z,14.12
2022-09-13T04:38:32.631Z,14.08
2022-09-13T04:41:00.236Z,14.11
2022-09-13T04:43:27.692Z,14.06
2022-09-13T04:45:55.484Z,14.03
2022-09-13T04:48:23.133Z,14.03
2022-09-13T04:51:06.223Z,14.03
2022-09-13T04:53:34.446Z,14.05
2022-09-13T04:56:02.860Z,14.08
2022-09-13T04:58:30.337Z,14.06
2022-09-13T05:01:04.962Z,14.05
2022-09-13T05:03:35.016Z,14.06
2022-09-13T05:06:15.344Z,14.08
2022-09-13T05:08:42.966Z,14.04
2022-09-13T05:11:10.775Z,14.07
2022-09-13T05:13:38.615Z,14.07
2022-09-13T05:16:07.117Z,13.99
2022-09-13T05:18:36.465Z,13.97
2022-09-13T05:21:05.378Z,14.01
2022-09-13T05:23:32.742Z,14.08
2022-09-13T05:26:05.150Z,14.07
2022-09-13T05:28:38.740Z,14.11
2022-09-13T05:31:09.661Z,14.14
2022-09-13T05:37:21.820Z,14.11
2022-09-13T05:40:10.299Z,14.09
2022-09-13T05:42:38.630Z,14.08
2022-09-13T05:45:07.546Z,14.09
2022-09-13T05:47:35.530Z,14.06
2022-09-13T05:50:15.423Z,14.07
2022-09-13T05:52:54.848Z,14.09
2022-09-13T05:55:23.747Z,14.13
2022-09-13T05:57:53.543Z,14.12
2022-09-13T06:00:21.232Z,14.09
2022-09-13T06:02:49.599Z,14.11
2022-09-13T06:05:17.875Z,14.11
2022-09-13T06:07:46.925Z,14.03
2022-09-13T06:10:14.630Z,13.91
2022-09-13T06:12:42.595Z,13.85
2022-09-13T06:15:11.678Z,13.85
2022-09-13T06:17:39.473Z,13.73
2022-09-13T06:20:11.276Z,13.67
2022-09-13T06:22:40.437Z,13.60
2022-09-13T06:25:09.721Z,13.64
2022-09-13T06:27:37.318Z,13.62
2022-09-13T06:30:05.764Z,13.61
2022-09-13T06:32:33.481Z,13.63
2022-09-13T06:35:01.317Z,13.66
2022-09-13T06:37:28.917Z,13.62
2022-09-13T06:39:56.568Z,13.62
2022-09-13T06:42:24.003Z,13.66
2022-09-13T06:44:51.371Z,13.69
2022-09-13T06:47:18.838Z,13.72
2022-09-13T06:49:46.801Z,13.79
2022-09-13T06:52:17.527Z,13.77
2022-09-13T06:54:45.368Z,13.83
2022-09-13T06:57:12.841Z,13.95
2022-09-13T06:59:40.332Z,14.06
2022-09-13T07:02:07.776Z,14.10
2022-09-13T07:04:35.294Z,14.12
2022-09-13T07:07:02.892Z,14.18
2022-09-13T07:13:59.291Z,14.30
2022-09-13T07:16:35.891Z,14.36
2022-09-13T07:19:05.892Z,14.44
2022-09-13T07:21:34.450Z,14.40
2022-09-13T07:24:02.172Z,14.39
2022-09-13T07:26:29.887Z,14.46
2022-09-13T07:29:00.371Z,14.51
2022-09-13T07:31:30.915Z,14.48
2022-09-13T07:34:00.849Z,14.50
2022-09-13T07:36:29.912Z,14.52
2022-09-13T07:38:58.340Z,14.56
2022-09-13T07:41:29.417Z,14.59
2022-09-13T07:43:59.293Z,14.56
2022-09-13T07:46:28.736Z,14.50
2022-09-13T07:48:57.390Z,14.59
2022-09-13T07:51:33.616Z,14.64
2022-09-13T07:54:03.017Z,14.72
2022-09-13T07:56:32.912Z,14.73
2022-09-13T07:59:02.422Z,14.76
2022-09-13T08:01:43.427Z,14.78
2022-09-13T08:04:13.825Z,14.84
2022-09-13T08:06:43.472Z,14.93
2022-09-13T08:09:14.417Z,14.95
2022-09-13T08:11:46.358Z,14.99
2022-09-13T08:14:15.982Z,14.97
2022-09-13T08:16:44.188Z,14.98
2022-09-13T08:19:17.192Z,14.98
2022-09-13T08:21:47.911Z,15.02
2022-09-13T08:24:22.341Z,15.06
2022-09-13T08:26:50.187Z,15.13
2022-09-13T08:29:18.266Z,15.22
2022-09-13T08:31:46.232Z,15.24
2022-09-13T08:34:15.427Z,15.32
2022-09-13T08:45:14.052Z,15.49
2022-09-13T08:47:48.459Z,15.62
2022-09-13T08:50:36.727Z,15.70
2022-09-13T08:53:19.534Z,15.77
2022-09-13T08:56:05.340Z,15.71
2022-09-13T08:58:51.066Z,15.77
2022-09-13T09:01:37.635Z,15.92
2022-09-13T09:04:52.841Z,16.03
2022-09-13T09:07:27.308Z,16.02
2022-09-13T09:09:58.630Z,16.11
2022-09-13T09:12:42.364Z,16.19
2022-09-13T09:15:26.587Z,16.31
2022-09-13T09:18:24.644Z,16.32
2022-09-13T09:20:53.769Z,16.40
2022-09-13T09:23:25.160Z,16.48
2022-09-13T09:25:57.138Z,16.64
2022-09-13T09:28:25.526Z,16.73
2022-09-13T09:31:05.281Z,16.83
2022-09-13T09:33:57.258Z,16.79
2022-09-13T09:36:43.327Z,16.81
2022-09-13T09:39:12.897Z,16.89
2022-09-13T09:41:40.094Z,17.02
2022-09-13T09:44:20.440Z,17.12
2022-09-13T09:46:56.473Z,17.19
2022-09-13T09:49:51.028Z,17.30
2022-09-13T09:52:22.425Z,17.52
2022-09-13T09:54:50.434Z,17.63
2022-09-13T09:57:20.588Z,17.79
2022-09-13T09:59:47.686Z,17.94
2022-09-13T10:02:20.393Z,18.06
2022-09-13T10:04:57.545Z,18.21
2022-09-13T10:07:32.745Z,18.30
2022-09-13T10:10:23.354Z,18.47
2022-09-13T10:12:52.876Z,18.73
2022-09-13T10:15:21.801Z,18.77
2022-09-13T10:18:16.936Z,18.79
2022-09-13T10:21:17.148Z,18.71
2022-09-13T10:23:45.797Z,18.72
2022-09-13T10:26:18.143Z,18.86
2022-09-13T10:29:09.112Z,18.79
2022-09-13T10:31:39.110Z,18.83
2022-09-13T10:34:13.008Z,18.89
2022-09-13T10:36:53.528Z,18.95
2022-09-13T10:39:23.152Z,18.94
2022-09-13T10:41:53.658Z,18.90
2022-09-13T10:44:24.612Z,18.91
2022-09-13T10:46:52.384Z,18.97
2022-09-13T10:49:43.028Z,18.96
2022-09-13T10:53:01.070Z,18.96
2022-09-13T10:55:37.030Z,19.06
2022-09-13T10:58:07.295Z,19.04
2022-09-13T11:00:45.582Z,19.01
2022-09-13T11:03:33.039Z,18.98
2022-09-13T11:06:27.726Z,19.09
2022-09-13T11:09:17.474Z,18.87
2022-09-13T11:11:58.852Z,18.79
2022-09-13T11:14:41.184Z,18.79
2022-09-13T11:17:23.324Z,18.89
2022-09-13T11:20:02.928Z,18.85
2022-09-13T11:22:51.821Z,18.89
2022-09-13T11:25:53.037Z,18.85
2022-09-13T11:28:37.363Z,18.77
2022-09-13T11:31:07.691Z,18.76
2022-09-13T11:33:55.468Z,18.75
2022-09-13T11:36:28.766Z,18.79
2022-09-13T11:39:02.919Z,18.76
2022-09-13T11:41:32.833Z,18.76
2022-09-13T11:44:19.387Z,18.72
2022-09-13T11:47:15.723Z,18.70
2022-09-13T11:49:55.332Z,18.74
2022-09-13T11:52:37.727Z,18.80
2022-09-13T11:55:22.700Z,18.82
2022-09-13T11:57:55.157Z,18.69
2022-09-13T12:00:30.172Z,18.61
2022-09-13T12:03:23.787Z,18.60
2022-09-13T12:05:56.917Z,18.50
2022-09-13T12:08:23.945Z,18.44
2022-09-13T12:10:56.904Z,18.56
2022-09-13T12:13:30.193Z,18.57
2022-09-13T12:16:03.772Z,18.46
2022-09-13T12:18:57.141Z,18.36
2022-09-13T12:21:27.208Z,18.35
2022-09-13T12:24:00.327Z,18.22
2022-09-13T12:26:45.197Z,18.10
2022-09-13T12:29:19.539Z,18.15
2022-09-13T12:31:46.648Z,18.09
2022-09-13T12:34:24.985Z,18.06
2022-09-13T12:37:02.121Z,18.00
2022-09-13T12:39:48.813Z,18.11
2022-09-13T12:42:47.235Z,18.10
2022-09-13T12:45:33.623Z,18.00
2022-09-13T12:48:18.092Z,17.94
2022-09-13T12:51:03.659Z,17.97
2022-09-13T12:53:56.939Z,17.88
2022-09-13T12:56:45.868Z,17.94
2022-09-13T12:59:50.700Z,17.89
2022-09-13T13:02:31.919Z,17.88
2022-09-13T13:05:03.262Z,17.88
2022-09-13T13:07:32.653Z,17.93
2022-09-13T13:10:00.146Z,17.95
2022-09-13T13:12:38.452Z,18.03
2022-09-13T13:15:15.587Z,18.06
2022-09-13T13:17:48.902Z,18.06
2022-09-13T13:21:06.988Z,17.98
2022-09-13T13:23:37.337Z,17.94
2022-09-13T13:26:11.798Z,17.93
2022-09-13T13:28:44.983Z,17.93
2022-09-13T13:31:24.014Z,17.98
2022-09-13T13:33:53.997Z,18.03
2022-09-13T13:36:42.516Z,17.99
2022-09-13T13:39:33.748Z,17.97
2022-09-13T13:42:03.093Z,17.98
2022-09-13T13:44:31.868Z,18.09
2022-09-13T13:47:07.637Z,18.45
2022-09-13T13:49:46.161Z,18.89
2022-09-13T13:52:22.273Z,19.12
2022-09-13T13:54:55.500Z,19.34
2022-09-13T13:57:28.700Z,19.59
2022-09-13T14:00:11.331Z,19.85
2022-09-13T14:02:50.209Z,19.94
2022-09-13T14:05:42.556Z,19.99
2022-09-13T14:08:15.345Z,19.99
2022-09-13T14:10:50.354Z,19.89
2022-09-13T14:13:20.420Z,19.72
2022-09-13T14:15:53.213Z,19.62
2022-09-13T14:18:26.015Z,19.66
2022-09-13T14:21:00.835Z,19.67
2022-09-13T14:23:28.099Z,20.08
2022-09-13T14:25:57.626Z,20.36
2022-09-13T14:28:25.440Z,20.45
2022-09-13T14:30:55.866Z,20.40
2022-09-13T14:33:33.501Z,20.42
2022-09-13T14:36:06.228Z,20.36
2022-09-13T14:38:35.773Z,20.17
2022-09-13T14:41:15.513Z,20.09
2022-09-13T14:43:44.100Z,19.91
2022-09-13T14:46:20.309Z,19.78
2022-09-13T14:48:57.703Z,19.65
2022-09-13T14:51:46.146Z,19.60
2022-09-13T14:54:16.240Z,19.56
2022-09-13T14:56:49.975Z,19.55
2022-09-13T14:59:26.836Z,19.59
2022-09-13T15:01:54.168Z,19.66
2022-09-13T15:04:23.796Z,19.68
2022-09-13T15:07:19.730Z,19.88
2022-09-13T15:09:46.892Z,20.00
2022-09-13T15:12:26.331Z,20.04
2022-09-13T15:15:30.882Z,20.01
2022-09-13T15:18:00.361Z,20.57
2022-09-13T15:20:29.832Z,21.17
2022-09-13T15:22:57.552Z,21.86
2022-09-13T15:25:29.415Z,22.23
2022-09-13T15:27:57.438Z,22.50
2022-09-13T15:30:24.521Z,22.48
2022-09-13T15:33:24.959Z,22.57
2022-09-13T15:35:54.533Z,22.82
2022-09-13T15:38:30.125Z,22.93
2022-09-13T15:41:03.700Z,23.00
2022-09-13T15:43:31.310Z,23.00
2022-09-13T15:45:59.493Z,22.83
2022-09-13T15:48:32.465Z,22.79
2022-09-13T15:51:13.839Z,22.79
2022-09-13T15:53:44.353Z,22.70
2022-09-13T15:56:17.523Z,22.60
2022-09-13T15:58:44.610Z,22.48
2022-09-13T16:01:13.204Z,22.28
2022-09-13T16:03:40.502Z,22.24
2022-09-13T16:06:09.224Z,22.16
2022-09-13T16:08:37.081Z,22.09
2022-09-13T16:11:05.360Z,21.74
2022-09-13T16:13:32.631Z,21.63
2022-09-13T16:16:00.678Z,21.43
2022-09-13T16:18:27.925Z,21.42
2022-09-13T16:20:55.014Z,21.20
2022-09-13T16:23:22.094Z,21.02
2022-09-13T16:25:53.929Z,20.81
2022-09-13T16:28:21.260Z,20.73
2022-09-13T16:30:48.618Z,20.58
2022-09-13T16:33:15.684Z,20.53
2022-09-13T16:35:42.769Z,20.34
2022-09-13T16:38:10.537Z,20.33
2022-09-13T16:40:42.256Z,20.15
2022-09-13T16:43:09.407Z,20.04
2022-09-13T16:45:41.056Z,20.04
2022-09-13T16:48:08.471Z,19.90
2022-09-13T16:50:38.761Z,19.79
2022-09-13T16:53:05.934Z,19.69
2022-09-13T16:55:33.165Z,19.61
2022-09-13T16:58:00.296Z,19.54
2022-09-13T17:00:28.739Z,19.57
2022-09-13T17:02:56.771Z,19.63
2022-09-13T17:05:24.549Z,19.55
2022-09-13T17:07:53.113Z,19.47
2022-09-13T17:10:20.804Z,19.39
2022-09-13T17:12:48.174Z,19.34
2022-09-13T17:15:15.295Z,19.26
2022-09-13T17:17:42.420Z,19.25
2022-09-13T17:20:12.256Z,19.25
2022-09-13T17:22:39.997Z,19.11
2022-09-13T17:25:07.955Z,19.06
2022-09-13T17:27:35.377Z,19.05
2022-09-13T17:30:04.892Z,18.97
2022-09-13T17:32:32.151Z,18.86
2022-09-13T17:34:59.345Z,18.88
2022-09-13T17:37:26.841Z,18.79
2022-09-13T17:39:54.043Z,18.77
2022-09-13T17:42:23.372Z,18.71
2022-09-13T17:44:51.014Z,18.78
2022-09-13T17:47:18.137Z,18.80
2022-09-13T17:49:46.572Z,18.74
2022-09-13T17:52:14.208Z,18.60
2022-09-13T17:54:41.373Z,18.53
2022-09-13T17:57:11.933Z,18.50
2022-09-13T17:59:39.568Z,18.44
2022-09-13T18:02:07.188Z,18.42
2022-09-13T18:04:34.286Z,18.38
2022-09-13T18:07:01.412Z,18.37
2022-09-13T18:09:28.773Z,18.40
2022-09-13T18:11:55.978Z,18.49
2022-09-13T18:14:24.333Z,18.42
2022-09-13T18:16:55.639Z,18.41
2022-09-13T18:19:44.329Z,18.37
2022-09-13T18:22:10.472Z,18.30
2022-09-13T18:24:37.591Z,18.27
2022-09-13T18:27:05.442Z,18.31
2022-09-13T18:29:32.984Z,18.44
2022-09-13T18:32:00.271Z,18.31
2022-09-13T18:34:27.959Z,18.19
2022-09-13T18:36:56.022Z,18.18
2022-09-13T18:39:23.438Z,18.14
2022-09-13T18:41:50.512Z,18.05
2022-09-13T18:44:18.080Z,18.00
2022-09-13T18:46:46.518Z,18.02
2022-09-13T18:49:14.996Z,18.01
2022-09-13T18:51:43.724Z,17.98
2022-09-13T18:54:13.172Z,17.96
2022-09-13T18:56:41.389Z,17.93
2022-09-13T18:59:12.643Z,17.93
2022-09-13T19:01:42.288Z,17.95
2022-09-13T19:04:19.097Z,17.92
2022-09-13T19:06:48.527Z,17.81
2022-09-13T19:09:16.603Z,17.79
2022-09-13T19:11:47.702Z,17.83
2022-09-13T19:14:18.451Z,17.76
2022-09-13T19:16:45.750Z,17.69
2022-09-13T19:19:12.960Z,17.74
2022-09-13T19:21:40.743Z,17.68
2022-09-13T19:24:16.282Z,17.68
2022-09-13T19:26:44.810Z,17.63
2022-09-13T19:29:13.820Z,17.62
2022-09-13T19:31:43.753Z,17.56
2022-09-13T19:34:11.144Z,17.58
2022-09-13T19:36:39.307Z,17.56
2022-09-13T19:39:07.422Z,17.53
2022-09-13T19:41:35.136Z,17.45
2022-09-13T19:44:02.747Z,17.44
2022-09-13T19:46:36.335Z,17.46
2022-09-13T19:49:04.363Z,17.44
2022-09-13T19:51:36.490Z,17.42
2022-09-13T19:54:10.988Z,17.42
2022-09-13T19:56:42.843Z,17.43
2022-09-13T19:59:13.491Z,17.38
2022-09-13T20:01:42.371Z,17.35
2022-09-13T20:04:11.685Z,17.31
2022-09-13T20:06:44.213Z,17.34
2022-09-13T20:09:13.427Z,17.25
2022-09-13T20:11:44.981Z,17.24
2022-09-13T20:14:14.433Z,17.21
2022-09-13T20:16:42.767Z,17.24
2022-09-13T20:22:09.955Z,17.24
2022-09-13T20:24:37.409Z,17.21
2022-09-13T20:27:04.800Z,17.18
2022-09-13T20:29:32.008Z,17.19
2022-09-13T20:31:59.965Z,17.18
2022-09-13T20:34:27.266Z,17.14
2022-09-13T20:36:54.385Z,17.08
2022-09-13T20:39:21.652Z,17.03
2022-09-13T20:41:49.935Z,17.02
2022-09-13T20:44:17.463Z,17.03
2022-09-13T20:46:44.654Z,16.95
2022-09-13T20:49:11.816Z,16.92
2022-09-13T20:51:41.018Z,16.92
2022-09-13T20:54:08.282Z,16.88
2022-09-13T20:56:36.186Z,16.89
2022-09-13T20:59:04.037Z,16.89
2022-09-13T21:01:32.353Z,16.84
2022-09-13T21:04:00.054Z,16.86
2022-09-13T21:06:29.555Z,16.84
2022-09-13T21:08:59.699Z,16.75
2022-09-13T21:11:34.735Z,16.67
2022-09-13T21:14:06.362Z,16.67
2022-09-13T21:16:41.320Z,16.64
2022-09-13T21:19:09.098Z,16.60
2022-09-13T21:21:38.311Z,16.58
2022-09-13T21:24:09.548Z,16.58
2022-09-13T21:26:37.882Z,16.53
2022-09-13T21:29:05.276Z,16.53
2022-09-13T21:31:34.000Z,16.50
2022-09-13T21:34:04.179Z,16.48
2022-09-13T21:36:34.564Z,16.46
2022-09-13T21:39:02.324Z,16.36
2022-09-13T21:41:29.918Z,16.33
2022-09-13T21:43:57.237Z,16.31
2022-09-13T21:46:29.195Z,16.27
2022-09-13T21:48:59.668Z,16.27
2022-09-13T21:51:28.851Z,16.24
2022-09-13T21:53:58.918Z,16.16
2022-09-13T21:56:28.631Z,16.09
2022-09-13T21:59:00.805Z,16.11
2022-09-13T22:01:33.869Z,16.11
2022-09-13T22:04:01.775Z,16.10
2022-09-13T22:06:33.539Z,16.07
2022-09-13T22:09:04.305Z,16.05
2022-09-13T22:11:34.856Z,16.03
2022-09-13T22:14:02.545Z,15.95
2022-09-13T22:16:35.011Z,15.92
2022-09-13T22:19:13.030Z,15.80
2022-09-13T22:21:42.696Z,15.73
2022-09-13T22:24:13.928Z,15.74
2022-09-13T22:26:41.088Z,15.79
2022-09-13T22:29:09.688Z,15.83
2022-09-13T22:31:39.401Z,15.79
2022-09-13T22:34:07.558Z,15.78
2022-09-13T22:36:34.657Z,15.72
2022-09-13T22:39:01.805Z,15.63
2022-09-13T22:41:31.357Z,15.54
2022-09-13T22:43:59.597Z,15.49
2022-09-13T22:46:30.824Z,15.47
2022-09-13T22:48:57.989Z,15.48
2022-09-13T22:51:26.267Z,15.48
2022-09-13T22:53:54.040Z,15.44
2022-09-13T22:56:23.927Z,15.44
2022-09-13T22:58:55.986Z,15.38
2022-09-13T23:01:24.240Z,15.31
2022-09-13T23:03:51.898Z,15.23
2022-09-13T23:06:22.550Z,15.17
2022-09-13T23:08:51.391Z,15.18
2022-09-13T23:11:24.175Z,15.18
2022-09-13T23:13:52.838Z,15.15
2022-09-13T23:16:28.352Z,15.15
2022-09-13T23:18:55.717Z,15.16
2022-09-13T23:21:25.841Z,15.15
2022-09-13T23:23:54.080Z,15.14
2022-09-13T23:26:23.300Z,15.15
2022-09-13T23:28:59.690Z,15.12
2022-09-13T23:31:32.552Z,15.09
2022-09-13T23:34:01.909Z,15.02
2022-09-13T23:36:31.477Z,14.96
2022-09-13T23:38:59.175Z,14.97
2022-09-13T23:41:26.303Z,14.97
2022-09-13T23:43:53.882Z,15.01
2022-09-13T23:46:21.607Z,14.96
2022-09-13T23:48:49.000Z,15.00
2022-09-13T23:51:22.993Z,14.99
2022-09-13T23:53:52.008Z,14.92
2022-09-13T23:56:19.564Z,14.90
2022-09-13T23:58:46.732Z,14.92
